sensor_id;sensor_type;location;lat;lon;timestamp;temperature;humidity
57264;DHT22;43113;53.124;6.092;2022-12-08T00:00:45;2.80;99.90
57264;DHT22;43113;53.124;6.092;2022-12-08T00:03:11;2.70;99.90
57264;DHT22;43113;53.124;6.092;2022-12-08T00:05:37;3.00;99.90
57264;DHT22;43113;53.124;6.092;2022-12-08T00:08:21;2.80;99.90
57264;DHT22;43113;53.124;6.092;2022-12-08T00:11:10;2.80;99.90
57264;DHT22;43113;53.124;6.092;2022-12-08T00:13:36;2.80;99.90
57264;DHT22;43113;53.124;6.092;2022-12-08T00:16:01;2.70;99.90
57264;DHT22;43113;53.124;6.092;2022-12-08T00:18:27;2.90;99.90
57264;DHT22;43113;53.124;6.092;2022-12-08T00:20:57;2.70;99.90
57264;DHT22;43113;53.124;6.092;2022-12-08T00:23:23;2.70;99.90
57264;DHT22;43113;53.124;6.092;2022-12-08T00:25:49;4.00;99.90
57264;DHT22;43113;53.124;6.092;2022-12-08T00:28:14;3.90;99.90
57264;DHT22;43113;53.124;6.092;2022-12-08T00:30:40;2.60;99.90
57264;DHT22;43113;53.124;6.092;2022-12-08T00:33:07;2.60;99.90
57264;DHT22;43113;53.124;6.092;2022-12-08T00:35:32;3.80;99.90
57264;DHT22;43113;53.124;6.092;2022-12-08T00:37:58;2.70;99.90
57264;DHT22;43113;53.124;6.092;2022-12-08T00:40:24;2.50;99.90
57264;DHT22;43113;53.124;6.092;2022-12-08T00:42:50;2.50;99.90
57264;DHT22;43113;53.124;6.092;2022-12-08T00:45:15;2.40;99.90
57264;DHT22;43113;53.124;6.092;2022-12-08T00:47:41;2.40;99.90
57264;DHT22;43113;53.124;6.092;2022-12-08T00:50:07;2.40;99.90
57264;DHT22;43113;53.124;6.092;2022-12-08T00:52:33;2.40;99.90
57264;DHT22;43113;53.124;6.092;2022-12-08T00:54:58;2.40;99.90
57264;DHT22;43113;53.124;6.092;2022-12-08T00:57:24;2.80;99.90
57264;DHT22;43113;53.124;6.092;2022-12-08T00:59:50;2.30;99.90
57264;DHT22;43113;53.124;6.092;2022-12-08T01:02:15;2.30;99.90
57264;DHT22;43113;53.124;6.092;2022-12-08T01:04:41;2.30;99.90
57264;DHT22;43113;53.124;6.092;2022-12-08T01:07:07;2.00;99.90
57264;DHT22;43113;53.124;6.092;2022-12-08T01:09:33;2.30;99.90
57264;DHT22;43113;53.124;6.092;2022-12-08T01:11:59;2.30;99.90
57264;DHT22;43113;53.124;6.092;2022-12-08T01:14:25;2.30;99.90
57264;DHT22;43113;53.124;6.092;2022-12-08T01:16:51;2.30;99.90
57264;DHT22;43113;53.124;6.092;2022-12-08T01:19:17;2.30;99.90
57264;DHT22;43113;53.124;6.092;2022-12-08T01:21:44;2.50;99.90
57264;DHT22;43113;53.124;6.092;2022-12-08T01:24:16;2.30;99.90
57264;DHT22;43113;53.124;6.092;2022-12-08T01:26:42;2.40;99.90
57264;DHT22;43113;53.124;6.092;2022-12-08T01:29:08;3.60;99.90
57264;DHT22;43113;53.124;6.092;2022-12-08T01:31:34;4.00;99.90
57264;DHT22;43113;53.124;6.092;2022-12-08T01:34:00;2.50;99.90
57264;DHT22;43113;53.124;6.092;2022-12-08T01:36:31;2.40;99.90
57264;DHT22;43113;53.124;6.092;2022-12-08T01:39:00;2.40;99.90
57264;DHT22;43113;53.124;6.092;2022-12-08T01:41:28;2.30;99.90
57264;DHT22;43113;53.124;6.092;2022-12-08T01:46:34;2.20;99.90
57264;DHT22;43113;53.124;6.092;2022-12-08T01:49:08;1.90;99.90
57264;DHT22;43113;53.124;6.092;2022-12-08T01:54:08;2.10;99.90
57264;DHT22;43113;53.124;6.092;2022-12-08T01:56:59;2.00;99.90
57264;DHT22;43113;53.124;6.092;2022-12-08T01:59:27;2.10;99.90
57264;DHT22;43113;53.124;6.092;2022-12-08T02:01:54;2.40;99.90
57264;DHT22;43113;53.124;6.092;2022-12-08T02:04:20;3.50;99.90
57264;DHT22;43113;53.124;6.092;2022-12-08T02:06:46;2.00;99.90
57264;DHT22;43113;53.124;6.092;2022-12-08T02:09:13;2.10;99.90
57264;DHT22;43113;53.124;6.092;2022-12-08T02:11:39;2.10;99.90
57264;DHT22;43113;53.124;6.092;2022-12-08T02:14:06;2.10;99.90
57264;DHT22;43113;53.124;6.092;2022-12-08T02:16:51;2.10;99.90
57264;DHT22;43113;53.124;6.092;2022-12-08T02:36:10;2.30;99.90
57264;DHT22;43113;53.124;6.092;2022-12-08T02:41:15;2.30;99.90
57264;DHT22;43113;53.124;6.092;2022-12-08T02:44:16;2.40;99.90
57264;DHT22;43113;53.124;6.092;2022-12-08T02:46:48;2.40;99.90
57264;DHT22;43113;53.124;6.092;2022-12-08T02:49:14;2.30;99.90
57264;DHT22;43113;53.124;6.092;2022-12-08T02:51:41;4.60;99.90
57264;DHT22;43113;53.124;6.092;2022-12-08T02:54:07;3.30;99.90
57264;DHT22;43113;53.124;6.092;2022-12-08T02:56:56;2.40;99.90
57264;DHT22;43113;53.124;6.092;2022-12-08T03:00:10;2.40;99.90
57264;DHT22;43113;53.124;6.092;2022-12-08T03:02:26;2.40;99.90
57264;DHT22;43113;53.124;6.092;2022-12-08T03:05:05;2.20;99.90
57264;DHT22;43113;53.124;6.092;2022-12-08T03:07:52;2.20;99.90
57264;DHT22;43113;53.124;6.092;2022-12-08T03:13:20;1.70;99.90
57264;DHT22;43113;53.124;6.092;2022-12-08T03:15:48;1.60;99.90
57264;DHT22;43113;53.124;6.092;2022-12-08T03:18:16;1.50;99.90
57264;DHT22;43113;53.124;6.092;2022-12-08T03:20:45;1.40;99.90
57264;DHT22;43113;53.124;6.092;2022-12-08T03:23:13;1.30;99.90
57264;DHT22;43113;53.124;6.092;2022-12-08T03:25:47;1.20;99.90
57264;DHT22;43113;53.124;6.092;2022-12-08T03:28:14;1.10;99.90
57264;DHT22;43113;53.124;6.092;2022-12-08T03:30:42;1.10;99.90
57264;DHT22;43113;53.124;6.092;2022-12-08T03:33:14;1.00;99.90
57264;DHT22;43113;53.124;6.092;2022-12-08T03:35:42;0.90;99.90
57264;DHT22;43113;53.124;6.092;2022-12-08T03:38:11;0.90;99.90
57264;DHT22;43113;53.124;6.092;2022-12-08T03:40:38;0.90;99.90
57264;DHT22;43113;53.124;6.092;2022-12-08T03:43:04;0.80;99.90
57264;DHT22;43113;53.124;6.092;2022-12-08T03:45:30;1.40;99.90
57264;DHT22;43113;53.124;6.092;2022-12-08T03:47:56;0.90;99.90
57264;DHT22;43113;53.124;6.092;2022-12-08T03:50:21;0.90;99.90
57264;DHT22;43113;53.124;6.092;2022-12-08T03:52:47;1.80;99.90
57264;DHT22;43113;53.124;6.092;2022-12-08T03:55:14;0.90;99.90
57264;DHT22;43113;53.124;6.092;2022-12-08T03:57:40;1.20;99.90
57264;DHT22;43113;53.124;6.092;2022-12-08T04:00:07;0.90;99.90
57264;DHT22;43113;53.124;6.092;2022-12-08T04:02:33;0.90;99.90
57264;DHT22;43113;53.124;6.092;2022-12-08T04:04:59;1.00;99.90
57264;DHT22;43113;53.124;6.092;2022-12-08T04:07:25;1.00;99.90
57264;DHT22;43113;53.124;6.092;2022-12-08T04:09:50;1.00;99.90
57264;DHT22;43113;53.124;6.092;2022-12-08T04:12:16;1.00;99.90
57264;DHT22;43113;53.124;6.092;2022-12-08T04:14:42;1.60;99.90
57264;DHT22;43113;53.124;6.092;2022-12-08T04:17:07;2.40;99.90
57264;DHT22;43113;53.124;6.092;2022-12-08T04:19:33;1.00;99.90
57264;DHT22;43113;53.124;6.092;2022-12-08T04:21:59;1.00;99.90
57264;DHT22;43113;53.124;6.092;2022-12-08T04:24:24;1.00;99.90
57264;DHT22;43113;53.124;6.092;2022-12-08T04:26:50;0.90;99.90
57264;DHT22;43113;53.124;6.092;2022-12-08T04:29:16;1.90;99.90
57264;DHT22;43113;53.124;6.092;2022-12-08T04:31:41;0.90;99.90
57264;DHT22;43113;53.124;6.092;2022-12-08T04:34:08;1.00;99.90
57264;DHT22;43113;53.124;6.092;2022-12-08T04:36:34;1.00;99.90
57264;DHT22;43113;53.124;6.092;2022-12-08T04:39:00;1.00;99.90
57264;DHT22;43113;53.124;6.092;2022-12-08T04:41:25;0.90;99.90
57264;DHT22;43113;53.124;6.092;2022-12-08T04:43:51;0.90;99.90
57264;DHT22;43113;53.124;6.092;2022-12-08T04:46:17;0.90;99.90
57264;DHT22;43113;53.124;6.092;2022-12-08T04:48:42;0.90;99.90
57264;DHT22;43113;53.124;6.092;2022-12-08T04:51:17;0.90;99.90
57264;DHT22;43113;53.124;6.092;2022-12-08T04:53:44;1.50;99.90
57264;DHT22;43113;53.124;6.092;2022-12-08T04:56:15;0.90;99.90
57264;DHT22;43113;53.124;6.092;2022-12-08T04:58:41;0.90;99.90
57264;DHT22;43113;53.124;6.092;2022-12-08T05:01:07;1.00;99.90
57264;DHT22;43113;53.124;6.092;2022-12-08T05:03:33;1.00;99.90
57264;DHT22;43113;53.124;6.092;2022-12-08T05:05:59;1.10;99.90
57264;DHT22;43113;53.124;6.092;2022-12-08T05:08:25;1.50;99.90
57264;DHT22;43113;53.124;6.092;2022-12-08T05:10:51;1.10;99.90
57264;DHT22;43113;53.124;6.092;2022-12-08T05:13:17;1.10;99.90
57264;DHT22;43113;53.124;6.092;2022-12-08T05:15:43;1.10;99.90
57264;DHT22;43113;53.124;6.092;2022-12-08T05:18:09;1.10;99.90
57264;DHT22;43113;53.124;6.092;2022-12-08T05:20:35;1.10;99.90
57264;DHT22;43113;53.124;6.092;2022-12-08T05:23:01;1.20;99.90
57264;DHT22;43113;53.124;6.092;2022-12-08T05:25:26;1.10;99.90
57264;DHT22;43113;53.124;6.092;2022-12-08T05:27:52;1.00;99.90
57264;DHT22;43113;53.124;6.092;2022-12-08T05:30:18;1.00;99.90
57264;DHT22;43113;53.124;6.092;2022-12-08T05:32:43;1.00;99.90
57264;DHT22;43113;53.124;6.092;2022-12-08T05:35:09;0.00;99.90
57264;DHT22;43113;53.124;6.092;2022-12-08T05:37:35;1.10;99.90
57264;DHT22;43113;53.124;6.092;2022-12-08T05:40:01;2.30;99.90
57264;DHT22;43113;53.124;6.092;2022-12-08T05:42:27;1.10;99.90
57264;DHT22;43113;53.124;6.092;2022-12-08T05:44:52;1.10;99.90
57264;DHT22;43113;53.124;6.092;2022-12-08T05:47:18;1.10;99.90
57264;DHT22;43113;53.124;6.092;2022-12-08T05:49:44;0.80;99.90
57264;DHT22;43113;53.124;6.092;2022-12-08T05:52:09;1.20;99.90
57264;DHT22;43113;53.124;6.092;2022-12-08T05:54:35;2.10;99.90
57264;DHT22;43113;53.124;6.092;2022-12-08T05:57:01;1.20;99.90
57264;DHT22;43113;53.124;6.092;2022-12-08T05:59:27;1.30;99.90
57264;DHT22;43113;53.124;6.092;2022-12-08T06:01:52;1.30;99.90
57264;DHT22;43113;53.124;6.092;2022-12-08T06:04:18;1.30;99.90
57264;DHT22;43113;53.124;6.092;2022-12-08T06:06:44;1.50;99.90
57264;DHT22;43113;53.124;6.092;2022-12-08T06:09:09;1.30;99.90
57264;DHT22;43113;53.124;6.092;2022-12-08T06:11:36;1.20;99.90
57264;DHT22;43113;53.124;6.092;2022-12-08T06:14:02;1.30;99.90
57264;DHT22;43113;53.124;6.092;2022-12-08T06:16:28;1.30;99.90
57264;DHT22;43113;53.124;6.092;2022-12-08T06:18:55;1.30;99.90
57264;DHT22;43113;53.124;6.092;2022-12-08T06:21:21;1.30;99.90
57264;DHT22;43113;53.124;6.092;2022-12-08T06:23:48;1.30;99.90
57264;DHT22;43113;53.124;6.092;2022-12-08T06:26:14;1.90;99.90
57264;DHT22;43113;53.124;6.092;2022-12-08T06:28:41;1.30;99.90
57264;DHT22;43113;53.124;6.092;2022-12-08T06:31:19;1.30;99.90
57264;DHT22;43113;53.124;6.092;2022-12-08T06:33:45;1.20;99.90
57264;DHT22;43113;53.124;6.092;2022-12-08T06:36:13;1.20;99.90
57264;DHT22;43113;53.124;6.092;2022-12-08T06:38:39;1.10;99.90
57264;DHT22;43113;53.124;6.092;2022-12-08T06:41:05;1.10;99.90
57264;DHT22;43113;53.124;6.092;2022-12-08T06:43:31;1.00;99.90
57264;DHT22;43113;53.124;6.092;2022-12-08T06:45:58;2.10;99.90
57264;DHT22;43113;53.124;6.092;2022-12-08T06:48:24;0.90;99.90
57264;DHT22;43113;53.124;6.092;2022-12-08T06:50:49;1.20;99.90
57264;DHT22;43113;53.124;6.092;2022-12-08T06:53:15;0.70;99.90
57264;DHT22;43113;53.124;6.092;2022-12-08T06:55:46;0.70;99.90
57264;DHT22;43113;53.124;6.092;2022-12-08T06:58:12;0.60;99.90
57264;DHT22;43113;53.124;6.092;2022-12-08T07:00:39;0.60;99.90
57264;DHT22;43113;53.124;6.092;2022-12-08T07:03:07;0.60;99.90
57264;DHT22;43113;53.124;6.092;2022-12-08T07:05:33;0.50;99.90
57264;DHT22;43113;53.124;6.092;2022-12-08T07:07:59;0.50;99.90
57264;DHT22;43113;53.124;6.092;2022-12-08T07:10:25;0.50;99.90
57264;DHT22;43113;53.124;6.092;2022-12-08T07:12:51;0.40;99.90
57264;DHT22;43113;53.124;6.092;2022-12-08T07:15:17;0.30;99.90
57264;DHT22;43113;53.124;6.092;2022-12-08T07:17:43;0.30;99.90
57264;DHT22;43113;53.124;6.092;2022-12-08T07:20:08;0.10;99.90
57264;DHT22;43113;53.124;6.092;2022-12-08T07:22:35;0.50;99.90
57264;DHT22;43113;53.124;6.092;2022-12-08T07:25:00;0.60;99.90
57264;DHT22;43113;53.124;6.092;2022-12-08T07:27:26;0.10;99.90
57264;DHT22;43113;53.124;6.092;2022-12-08T07:29:52;1.00;99.90
57264;DHT22;43113;53.124;6.092;2022-12-08T07:32:18;0.50;99.90
57264;DHT22;43113;53.124;6.092;2022-12-08T07:34:43;0.50;99.90
57264;DHT22;43113;53.124;6.092;2022-12-08T07:37:09;-0.10;99.90
57264;DHT22;43113;53.124;6.092;2022-12-08T07:39:35;1.30;99.90
57264;DHT22;43113;53.124;6.092;2022-12-08T07:42:00;-0.20;99.90
57264;DHT22;43113;53.124;6.092;2022-12-08T07:44:26;-0.20;99.90
57264;DHT22;43113;53.124;6.092;2022-12-08T07:46:52;1.10;99.90
57264;DHT22;43113;53.124;6.092;2022-12-08T07:49:17;-0.20;99.90
57264;DHT22;43113;53.124;6.092;2022-12-08T07:51:43;0.10;99.90
57264;DHT22;43113;53.124;6.092;2022-12-08T07:54:12;-0.20;99.90
57264;DHT22;43113;53.124;6.092;2022-12-08T07:56:38;-0.10;99.90
57264;DHT22;43113;53.124;6.092;2022-12-08T07:59:04;-0.20;99.90
57264;DHT22;43113;53.124;6.092;2022-12-08T08:01:31;-0.10;99.90
57264;DHT22;43113;53.124;6.092;2022-12-08T08:03:59;-0.30;99.90
57264;DHT22;43113;53.124;6.092;2022-12-08T08:06:33;-0.30;99.90
57264;DHT22;43113;53.124;6.092;2022-12-08T08:08:59;-0.30;99.90
57264;DHT22;43113;53.124;6.092;2022-12-08T08:11:25;-0.30;99.90
57264;DHT22;43113;53.124;6.092;2022-12-08T08:13:51;-0.20;99.90
57264;DHT22;43113;53.124;6.092;2022-12-08T08:16:17;-0.20;99.90
57264;DHT22;43113;53.124;6.092;2022-12-08T08:18:46;-0.10;99.90
57264;DHT22;43113;53.124;6.092;2022-12-08T08:21:13;0.00;99.90
57264;DHT22;43113;53.124;6.092;2022-12-08T08:23:39;0.00;99.90
57264;DHT22;43113;53.124;6.092;2022-12-08T08:26:05;0.10;99.90
57264;DHT22;43113;53.124;6.092;2022-12-08T08:28:31;0.10;99.90
57264;DHT22;43113;53.124;6.092;2022-12-08T08:30:58;0.20;99.90
57264;DHT22;43113;53.124;6.092;2022-12-08T08:33:24;0.20;99.90
57264;DHT22;43113;53.124;6.092;2022-12-08T08:35:50;0.20;99.90
57264;DHT22;43113;53.124;6.092;2022-12-08T08:38:16;0.20;99.90
57264;DHT22;43113;53.124;6.092;2022-12-08T08:40:42;0.20;99.90
57264;DHT22;43113;53.124;6.092;2022-12-08T08:43:07;0.20;99.90
57264;DHT22;43113;53.124;6.092;2022-12-08T08:45:34;0.80;99.90
57264;DHT22;43113;53.124;6.092;2022-12-08T08:48:00;0.30;99.90
57264;DHT22;43113;53.124;6.092;2022-12-08T08:52:52;0.60;99.90
57264;DHT22;43113;53.124;6.092;2022-12-08T08:55:18;0.80;99.90
57264;DHT22;43113;53.124;6.092;2022-12-08T08:57:44;1.30;99.90
57264;DHT22;43113;53.124;6.092;2022-12-08T09:00:10;1.20;99.90
57264;DHT22;43113;53.124;6.092;2022-12-08T09:02:36;1.40;99.90
57264;DHT22;43113;53.124;6.092;2022-12-08T09:05:03;1.50;99.90
57264;DHT22;43113;53.124;6.092;2022-12-08T09:07:29;1.70;99.90
57264;DHT22;43113;53.124;6.092;2022-12-08T09:09:56;1.90;99.90
57264;DHT22;43113;53.124;6.092;2022-12-08T09:12:21;2.10;99.90
57264;DHT22;43113;53.124;6.092;2022-12-08T09:14:47;2.30;99.90
57264;DHT22;43113;53.124;6.092;2022-12-08T09:17:13;3.00;99.90
57264;DHT22;43113;53.124;6.092;2022-12-08T09:19:38;2.70;99.90
57264;DHT22;43113;53.124;6.092;2022-12-08T09:22:04;3.10;99.90
57264;DHT22;43113;53.124;6.092;2022-12-08T09:24:30;3.20;99.90
57264;DHT22;43113;53.124;6.092;2022-12-08T09:26:56;3.60;99.90
57264;DHT22;43113;53.124;6.092;2022-12-08T09:29:21;3.70;99.90
57264;DHT22;43113;53.124;6.092;2022-12-08T09:31:47;4.70;99.90
57264;DHT22;43113;53.124;6.092;2022-12-08T09:34:13;3.10;99.90
57264;DHT22;43113;53.124;6.092;2022-12-08T09:36:39;2.90;99.90
57264;DHT22;43113;53.124;6.092;2022-12-08T09:39:05;4.00;99.90
57264;DHT22;43113;53.124;6.092;2022-12-08T09:41:36;2.60;99.90
57264;DHT22;43113;53.124;6.092;2022-12-08T09:46:50;2.00;99.90
57264;DHT22;43113;53.124;6.092;2022-12-08T09:49:20;2.40;99.90
57264;DHT22;43113;53.124;6.092;2022-12-08T09:51:47;2.40;99.90
57264;DHT22;43113;53.124;6.092;2022-12-08T09:54:28;2.40;99.90
57264;DHT22;43113;53.124;6.092;2022-12-08T09:56:59;2.70;99.90
57264;DHT22;43113;53.124;6.092;2022-12-08T09:59:30;3.10;99.90
57264;DHT22;43113;53.124;6.092;2022-12-08T10:01:57;4.60;99.90
57264;DHT22;43113;53.124;6.092;2022-12-08T10:04:33;3.80;99.90
57264;DHT22;43113;53.124;6.092;2022-12-08T10:13:00;6.20;99.90
57264;DHT22;43113;53.124;6.092;2022-12-08T10:18:15;5.60;99.90
57264;DHT22;43113;53.124;6.092;2022-12-08T10:20:43;5.80;99.90
57264;DHT22;43113;53.124;6.092;2022-12-08T10:23:28;4.90;99.90
57264;DHT22;43113;53.124;6.092;2022-12-08T10:26:00;5.80;99.90
57264;DHT22;43113;53.124;6.092;2022-12-08T10:28:26;5.90;99.90
57264;DHT22;43113;53.124;6.092;2022-12-08T10:30:52;6.20;99.90
57264;DHT22;43113;53.124;6.092;2022-12-08T10:33:20;6.70;99.90
57264;DHT22;43113;53.124;6.092;2022-12-08T10:35:53;7.10;99.90
57264;DHT22;43113;53.124;6.092;2022-12-08T10:40:53;8.00;99.90
57264;DHT22;43113;53.124;6.092;2022-12-08T10:43:23;8.70;99.90
57264;DHT22;43113;53.124;6.092;2022-12-08T10:45:50;9.90;99.90
57264;DHT22;43113;53.124;6.092;2022-12-08T10:50:54;9.20;99.90
57264;DHT22;43113;53.124;6.092;2022-12-08T10:53:23;7.80;99.90
57264;DHT22;43113;53.124;6.092;2022-12-08T10:56:06;8.40;99.90
57264;DHT22;43113;53.124;6.092;2022-12-08T10:58:43;8.00;99.90
57264;DHT22;43113;53.124;6.092;2022-12-08T11:01:19;7.70;99.90
57264;DHT22;43113;53.124;6.092;2022-12-08T11:03:50;7.60;99.90
57264;DHT22;43113;53.124;6.092;2022-12-08T11:08:56;6.60;99.90
57264;DHT22;43113;53.124;6.092;2022-12-08T11:16:41;5.90;99.90
57264;DHT22;43113;53.124;6.092;2022-12-08T11:19:15;5.60;99.90
57264;DHT22;43113;53.124;6.092;2022-12-08T11:21:41;5.50;99.90
57264;DHT22;43113;53.124;6.092;2022-12-08T11:26:50;5.30;99.90
57264;DHT22;43113;53.124;6.092;2022-12-08T11:29:16;5.40;99.90
57264;DHT22;43113;53.124;6.092;2022-12-08T11:32:03;6.20;99.90
57264;DHT22;43113;53.124;6.092;2022-12-08T11:34:49;4.80;99.90
57264;DHT22;43113;53.124;6.092;2022-12-08T11:37:24;4.80;99.90
57264;DHT22;43113;53.124;6.092;2022-12-08T11:39:53;4.70;99.90
57264;DHT22;43113;53.124;6.092;2022-12-08T11:42:22;4.80;99.90
57264;DHT22;43113;53.124;6.092;2022-12-08T11:45:10;5.00;99.90
57264;DHT22;43113;53.124;6.092;2022-12-08T11:47:42;5.50;99.90
57264;DHT22;43113;53.124;6.092;2022-12-08T11:50:49;6.20;99.90
57264;DHT22;43113;53.124;6.092;2022-12-08T11:53:25;7.00;99.90
57264;DHT22;43113;53.124;6.092;2022-12-08T11:55:57;7.60;99.90
57264;DHT22;43113;53.124;6.092;2022-12-08T11:58:46;8.30;99.90
57264;DHT22;43113;53.124;6.092;2022-12-08T12:01:24;8.70;99.90
57264;DHT22;43113;53.124;6.092;2022-12-08T12:09:15;8.70;99.90
57264;DHT22;43113;53.124;6.092;2022-12-08T12:18:25;7.40;99.90
57264;DHT22;43113;53.124;6.092;2022-12-08T12:21:37;7.00;99.90
57264;DHT22;43113;53.124;6.092;2022-12-08T12:27:07;6.00;99.90
57264;DHT22;43113;53.124;6.092;2022-12-08T12:29:48;7.10;99.90
57264;DHT22;43113;53.124;6.092;2022-12-08T12:32:15;6.90;99.90
57264;DHT22;43113;53.124;6.092;2022-12-08T12:37:15;6.70;99.90
57264;DHT22;43113;53.124;6.092;2022-12-08T12:40:16;7.80;99.90
57264;DHT22;43113;53.124;6.092;2022-12-08T12:42:47;6.90;99.90
57264;DHT22;43113;53.124;6.092;2022-12-08T12:53:05;7.70;99.90
57264;DHT22;43113;53.124;6.092;2022-12-08T12:55:54;7.70;99.90
57264;DHT22;43113;53.124;6.092;2022-12-08T13:06:03;7.90;99.90
57264;DHT22;43113;53.124;6.092;2022-12-08T13:08:30;7.70;99.90
57264;DHT22;43113;53.124;6.092;2022-12-08T13:11:06;7.40;99.90
57264;DHT22;43113;53.124;6.092;2022-12-08T13:13:37;7.70;99.90
57264;DHT22;43113;53.124;6.092;2022-12-08T13:16:26;6.90;99.90
57264;DHT22;43113;53.124;6.092;2022-12-08T13:18:57;6.60;99.90
57264;DHT22;43113;53.124;6.092;2022-12-08T13:21:25;6.40;99.90
57264;DHT22;43113;53.124;6.092;2022-12-08T13:26:48;7.00;99.90
57264;DHT22;43113;53.124;6.092;2022-12-08T13:37:01;6.20;99.90
57264;DHT22;43113;53.124;6.092;2022-12-08T13:39:39;6.20;99.90
57264;DHT22;43113;53.124;6.092;2022-12-08T13:47:32;6.00;99.90
57264;DHT22;43113;53.124;6.092;2022-12-08T13:50:13;5.90;99.90
57264;DHT22;43113;53.124;6.092;2022-12-08T13:52:50;6.30;99.90
57264;DHT22;43113;53.124;6.092;2022-12-08T13:55:29;5.70;99.90
57264;DHT22;43113;53.124;6.092;2022-12-08T13:57:58;5.70;99.90
57264;DHT22;43113;53.124;6.092;2022-12-08T14:00:24;6.40;99.90
57264;DHT22;43113;53.124;6.092;2022-12-08T14:02:56;5.80;99.90
57264;DHT22;43113;53.124;6.092;2022-12-08T14:05:24;5.80;99.90
57264;DHT22;43113;53.124;6.092;2022-12-08T14:07:53;6.00;99.90
57264;DHT22;43113;53.124;6.092;2022-12-08T14:10:23;5.20;99.90
57264;DHT22;43113;53.124;6.092;2022-12-08T14:13:16;5.00;99.90
57264;DHT22;43113;53.124;6.092;2022-12-08T14:15:42;5.00;99.90
57264;DHT22;43113;53.124;6.092;2022-12-08T14:18:26;6.00;99.90
57264;DHT22;43113;53.124;6.092;2022-12-08T14:21:00;4.90;99.90
57264;DHT22;43113;53.124;6.092;2022-12-08T14:23:26;4.90;99.90
57264;DHT22;43113;53.124;6.092;2022-12-08T14:25:52;4.90;99.90
57264;DHT22;43113;53.124;6.092;2022-12-08T14:28:19;4.80;99.90
57264;DHT22;43113;53.124;6.092;2022-12-08T14:30:47;4.80;99.90
57264;DHT22;43113;53.124;6.092;2022-12-08T14:33:15;4.90;99.90
57264;DHT22;43113;53.124;6.092;2022-12-08T14:35:50;4.60;99.90
57264;DHT22;43113;53.124;6.092;2022-12-08T14:38:18;4.50;99.90
57264;DHT22;43113;53.124;6.092;2022-12-08T14:41:10;4.30;99.90
57264;DHT22;43113;53.124;6.092;2022-12-08T14:43:34;4.10;99.90
57264;DHT22;43113;53.124;6.092;2022-12-08T14:46:17;4.00;99.90
57264;DHT22;43113;53.124;6.092;2022-12-08T14:48:43;3.80;99.90
57264;DHT22;43113;53.124;6.092;2022-12-08T14:51:25;3.70;99.90
57264;DHT22;43113;53.124;6.092;2022-12-08T14:54:07;3.50;99.90
57264;DHT22;43113;53.124;6.092;2022-12-08T14:56:53;3.40;99.90
57264;DHT22;43113;53.124;6.092;2022-12-08T15:01:49;3.10;99.90
57264;DHT22;43113;53.124;6.092;2022-12-08T15:04:23;3.30;99.90
57264;DHT22;43113;53.124;6.092;2022-12-08T15:09:37;2.60;99.90
57264;DHT22;43113;53.124;6.092;2022-12-08T15:12:22;3.00;99.90
57264;DHT22;43113;53.124;6.092;2022-12-08T15:15:00;2.30;99.90
57264;DHT22;43113;53.124;6.092;2022-12-08T15:22:56;1.90;99.90
57264;DHT22;43113;53.124;6.092;2022-12-08T15:25:23;1.70;99.90
57264;DHT22;43113;53.124;6.092;2022-12-08T15:27:49;1.60;99.90
57264;DHT22;43113;53.124;6.092;2022-12-08T15:30:17;1.50;99.90
57264;DHT22;43113;53.124;6.092;2022-12-08T15:32:43;1.40;99.90
57264;DHT22;43113;53.124;6.092;2022-12-08T15:35:13;1.30;99.90
57264;DHT22;43113;53.124;6.092;2022-12-08T15:37:40;1.20;99.90
57264;DHT22;43113;53.124;6.092;2022-12-08T15:40:08;2.20;99.90
57264;DHT22;43113;53.124;6.092;2022-12-08T15:42:38;1.10;99.90
57264;DHT22;43113;53.124;6.092;2022-12-08T15:45:04;0.90;99.90
57264;DHT22;43113;53.124;6.092;2022-12-08T15:47:31;0.90;99.90
57264;DHT22;43113;53.124;6.092;2022-12-08T15:49:57;0.60;99.90
57264;DHT22;43113;53.124;6.092;2022-12-08T15:52:23;0.60;99.90
57264;DHT22;43113;53.124;6.092;2022-12-08T15:54:49;0.50;99.90
57264;DHT22;43113;53.124;6.092;2022-12-08T15:57:19;0.60;99.90
57264;DHT22;43113;53.124;6.092;2022-12-08T15:59:45;0.30;99.90
57264;DHT22;43113;53.124;6.092;2022-12-08T16:02:12;0.50;99.90
57264;DHT22;43113;53.124;6.092;2022-12-08T16:04:41;0.40;99.90
57264;DHT22;43113;53.124;6.092;2022-12-08T16:07:22;0.50;99.90
57264;DHT22;43113;53.124;6.092;2022-12-08T16:09:48;0.30;99.90
57264;DHT22;43113;53.124;6.092;2022-12-08T16:12:25;0.70;99.90
57264;DHT22;43113;53.124;6.092;2022-12-08T16:15:11;0.40;99.90
57264;DHT22;43113;53.124;6.092;2022-12-08T16:17:38;0.20;99.90
57264;DHT22;43113;53.124;6.092;2022-12-08T16:20:06;0.00;99.90
57264;DHT22;43113;53.124;6.092;2022-12-08T16:22:33;0.00;99.90
57264;DHT22;43113;53.124;6.092;2022-12-08T16:24:58;0.30;99.90
57264;DHT22;43113;53.124;6.092;2022-12-08T16:27:27;0.10;99.90
57264;DHT22;43113;53.124;6.092;2022-12-08T16:29:54;-0.10;99.90
57264;DHT22;43113;53.124;6.092;2022-12-08T16:32:20;0.00;99.90
57264;DHT22;43113;53.124;6.092;2022-12-08T16:34:47;0.30;99.90
57264;DHT22;43113;53.124;6.092;2022-12-08T16:37:17;-0.40;99.90
57264;DHT22;43113;53.124;6.092;2022-12-08T16:39:43;-0.40;99.90
57264;DHT22;43113;53.124;6.092;2022-12-08T16:42:14;-0.30;99.90
57264;DHT22;43113;53.124;6.092;2022-12-08T16:45:02;-0.60;99.90
57264;DHT22;43113;53.124;6.092;2022-12-08T16:47:27;-0.40;99.90
57264;DHT22;43113;53.124;6.092;2022-12-08T16:49:53;-0.60;99.90
57264;DHT22;43113;53.124;6.092;2022-12-08T16:52:19;-0.60;99.90
57264;DHT22;43113;53.124;6.092;2022-12-08T16:54:44;-0.70;99.90
57264;DHT22;43113;53.124;6.092;2022-12-08T16:57:10;-0.70;99.90
57264;DHT22;43113;53.124;6.092;2022-12-08T16:59:37;-0.80;99.90
57264;DHT22;43113;53.124;6.092;2022-12-08T17:02:03;-0.80;99.90
57264;DHT22;43113;53.124;6.092;2022-12-08T17:04:30;-0.80;99.90
57264;DHT22;43113;53.124;6.092;2022-12-08T17:06:56;-0.80;99.90
57264;DHT22;43113;53.124;6.092;2022-12-08T17:09:23;-0.80;99.90
57264;DHT22;43113;53.124;6.092;2022-12-08T17:11:49;-0.90;99.90
57264;DHT22;43113;53.124;6.092;2022-12-08T17:14:15;-0.90;99.90
57264;DHT22;43113;53.124;6.092;2022-12-08T17:16:41;-1.00;99.90
57264;DHT22;43113;53.124;6.092;2022-12-08T17:19:08;-1.10;99.90
57264;DHT22;43113;53.124;6.092;2022-12-08T17:21:33;-1.10;99.90
57264;DHT22;43113;53.124;6.092;2022-12-08T17:23:59;-1.00;99.90
57264;DHT22;43113;53.124;6.092;2022-12-08T17:26:25;-1.20;99.90
57264;DHT22;43113;53.124;6.092;2022-12-08T17:28:50;-1.20;99.90
57264;DHT22;43113;53.124;6.092;2022-12-08T17:31:16;-1.30;99.90
57264;DHT22;43113;53.124;6.092;2022-12-08T17:33:44;-1.30;99.90
57264;DHT22;43113;53.124;6.092;2022-12-08T17:36:13;-1.30;99.90
57264;DHT22;43113;53.124;6.092;2022-12-08T17:38:39;-1.40;99.90
57264;DHT22;43113;53.124;6.092;2022-12-08T17:41:07;-0.10;99.90
57264;DHT22;43113;53.124;6.092;2022-12-08T17:43:33;-1.50;99.90
57264;DHT22;43113;53.124;6.092;2022-12-08T17:45:59;-1.50;99.90
57264;DHT22;43113;53.124;6.092;2022-12-08T17:48:25;-1.50;99.90
57264;DHT22;43113;53.124;6.092;2022-12-08T17:50:52;-1.50;99.90
57264;DHT22;43113;53.124;6.092;2022-12-08T17:53:19;-1.60;99.90